Sunday, December 17, 2017, 4:19 PM EST
Back to Local

KPVC, Provincetown, Provincetown Municipal Airport

Location: Provincetown, MA, United States Lat: 42.067
Local Time: 4:19 PM EST (21:19 GMT) Lon: -70.217
Time Zone: US/Eastern Elev: 6 ft

Show me the last for .
Show Decoded

2017-12-17 14:56 METAR KPVC 171956Z AUTO 33012KT 10SM CLR M02/M11 A3021 RMK AO2 SLP230 T10221111
                 FZRANO =
2017-12-17 13:56 METAR KPVC 171856Z AUTO 30010G18KT 10SM CLR M02/M10 A3023 RMK AO2 SLP235
                 T10171100 FZRANO =
2017-12-17 12:56 METAR KPVC 171756Z AUTO 31013KT 10SM CLR M02/M10 A3023 RMK AO2 SLP236 6////
                 T10221100 11017 21039 FZRANO =
2017-12-17 11:56 METAR KPVC 171656Z AUTO 31014G20KT 10SM CLR M02/M10 A3024 RMK AO2 SLP238
                 T10221100 FZRANO =
2017-12-17 10:56 METAR KPVC 171556Z AUTO 32015G21KT 10SM CLR M02/M09 RMK AO2 SLPNO T10221094
                 FZRANO $ =
2017-12-17 09:56 METAR KPVC 171456Z AUTO 32016G23KT 10SM CLR M02/M10 A3026 RMK AO2 SLP245 6////
                 T10221100 FZRANO =
2017-12-17 08:56 METAR KPVC 171356Z AUTO 31014G18KT 10SM CLR M03/M10 A3026 RMK AO2 SLP245
                 T10281100 FZRANO =
2017-12-17 07:56 METAR KPVC 171256Z AUTO 32014G18KT 10SM CLR M03/M10 A3025 RMK AO2 SLP241
                 T10331100 FZRANO =
2017-12-17 06:56 METAR KPVC 171156Z AUTO 31014KT 10SM CLR M04/M11 RMK AO2 SLPNO 6//// 7////
                 T10391106 11022 21039 FZRANO $ =
2017-12-17 05:56 METAR KPVC 171056Z AUTO 31013G19KT 10SM CLR M03/M10 A3024 RMK AO2 SLP240
                 T10331100 FZRANO =
2017-12-17 04:56 METAR KPVC 170956Z AUTO 32012G19KT 10SM CLR M03/M11 A3022 RMK AO2 SLP232
                 T10331111 FZRANO =
2017-12-17 03:56 METAR KPVC 170856Z AUTO 31013G23KT 10SM CLR M03/M12 A3019 RMK AO2 SLP223 6////
                 T10331117 50012 FZRANO =
2017-12-17 02:56 METAR KPVC 170756Z AUTO 31016G21KT 10SM CLR M03/M11 A3020 RMK AO2 SLP225
                 T10281106 FZRANO =
2017-12-17 01:56 METAR KPVC 170656Z AUTO 32016G24KT 10SM CLR M02/M12 A3018 RMK AO2 SLP218
                 T10221117 FZRANO =
2017-12-17 00:56 METAR KPVC 170556Z AUTO 31013G20KT 10SM CLR M02/M11 A3016 RMK AO2 SLP211 6////
                 T10221106 10000 21022 51014 FZRANO =
2017-12-16 23:56 METAR KPVC 170456Z AUTO 31014G22KT 10SM FEW049 M02/M11 A3015 RMK AO2 SLP208
                 T10171106 400171039 FZRANO =
2017-12-16 22:56 METAR KPVC 170356Z AUTO 32017G23KT 10SM SCT055 M01/M09 A3014 RMK AO2 SLP205
                 T10111094 FZRANO =
2017-12-16 21:56 METAR KPVC 170256Z AUTO 32016G22KT 10SM BKN047 BKN060 M01/M08 A3012 RMK AO2
                 UPE0158 SLP197 P0000 6//// T10111083 FZRANO =
2017-12-16 20:56 METAR KPVC 170156Z AUTO 32021G28KT 10SM UP BKN044 OVC050 00/M08 A3008 RMK AO2 PK
                 WND 32028/0155 UPB38 SLP187 T00001083 FZRANO =
2017-12-16 19:56 METAR KPVC 170056Z AUTO 30017G27KT 10SM SCT040 BKN049 OVC060 00/M07 A3006 RMK
                 AO2 SLP179 T00001067 FZRANO =
2017-12-16 18:56 METAR KPVC 162356Z AUTO 29021G29KT 10SM FEW048 00/M09 RMK AO2 PK WND 29032/2342
                 SLPNO 6//// T00001089 10011 20000 FZRANO $ =
2017-12-16 17:56 METAR KPVC 162256Z AUTO 29020G27KT 10SM FEW090 00/M09 A2999 RMK AO2 PK WND
                 29028/2239 SLP155 T00001089 FZRANO =
2017-12-16 16:56 METAR KPVC 162156Z AUTO 27017G24KT 10SM FEW046 00/M08 A2997 RMK AO2 SLP147
                 T00001078 FZRANO =

Support USWX by starting your Amazon purchase here.